sensor_id;sensor_type;location;lat;lon;timestamp;temperature;humidity
15394;DHT22;7795;47.986;11.868;2023-02-01T00:01:55;7.40;63.70
15394;DHT22;7795;47.986;11.868;2023-02-01T00:04:21;7.30;63.80
15394;DHT22;7795;47.986;11.868;2023-02-01T00:06:47;7.30;63.90
15394;DHT22;7795;47.986;11.868;2023-02-01T00:09:13;7.30;64.10
15394;DHT22;7795;47.986;11.868;2023-02-01T00:11:40;7.30;64.20
15394;DHT22;7795;47.986;11.868;2023-02-01T00:14:06;7.30;64.30
15394;DHT22;7795;47.986;11.868;2023-02-01T00:16:33;7.30;64.30
15394;DHT22;7795;47.986;11.868;2023-02-01T00:19:01;7.30;64.40
15394;DHT22;7795;47.986;11.868;2023-02-01T00:21:27;7.30;64.50
15394;DHT22;7795;47.986;11.868;2023-02-01T00:23:53;7.30;64.50
15394;DHT22;7795;47.986;11.868;2023-02-01T00:26:22;7.20;64.50
15394;DHT22;7795;47.986;11.868;2023-02-01T00:28:52;7.20;64.50
15394;DHT22;7795;47.986;11.868;2023-02-01T00:31:18;7.30;64.60
15394;DHT22;7795;47.986;11.868;2023-02-01T00:33:46;7.30;64.60
15394;DHT22;7795;47.986;11.868;2023-02-01T00:36:12;7.20;64.60
15394;DHT22;7795;47.986;11.868;2023-02-01T00:38:38;7.20;64.60
15394;DHT22;7795;47.986;11.868;2023-02-01T00:41:06;7.30;64.70
15394;DHT22;7795;47.986;11.868;2023-02-01T00:43:32;7.20;64.60
15394;DHT22;7795;47.986;11.868;2023-02-01T00:46:00;7.20;64.60
15394;DHT22;7795;47.986;11.868;2023-02-01T00:48:26;7.20;64.50
15394;DHT22;7795;47.986;11.868;2023-02-01T00:50:52;7.20;64.50
15394;DHT22;7795;47.986;11.868;2023-02-01T00:53:18;7.30;64.60
15394;DHT22;7795;47.986;11.868;2023-02-01T00:55:44;7.20;64.50
15394;DHT22;7795;47.986;11.868;2023-02-01T00:58:11;7.30;64.50
15394;DHT22;7795;47.986;11.868;2023-02-01T01:00:36;7.30;64.50
15394;DHT22;7795;47.986;11.868;2023-02-01T01:03:04;7.30;64.40
15394;DHT22;7795;47.986;11.868;2023-02-01T01:05:43;7.30;64.30
15394;DHT22;7795;47.986;11.868;2023-02-01T01:08:09;7.30;64.30
15394;DHT22;7795;47.986;11.868;2023-02-01T01:10:34;7.30;64.30
15394;DHT22;7795;47.986;11.868;2023-02-01T01:13:00;7.30;64.30
15394;DHT22;7795;47.986;11.868;2023-02-01T01:15:26;7.30;64.30
15394;DHT22;7795;47.986;11.868;2023-02-01T01:17:51;7.30;64.30
15394;DHT22;7795;47.986;11.868;2023-02-01T01:20:19;7.30;64.40
15394;DHT22;7795;47.986;11.868;2023-02-01T01:22:47;7.30;64.50
15394;DHT22;7795;47.986;11.868;2023-02-01T01:25:12;7.30;64.60
15394;DHT22;7795;47.986;11.868;2023-02-01T01:27:38;7.30;64.80
15394;DHT22;7795;47.986;11.868;2023-02-01T01:30:05;7.30;65.00
15394;DHT22;7795;47.986;11.868;2023-02-01T01:32:31;7.30;65.60
15394;DHT22;7795;47.986;11.868;2023-02-01T01:34:57;7.30;66.10
15394;DHT22;7795;47.986;11.868;2023-02-01T01:37:24;7.20;66.40
15394;DHT22;7795;47.986;11.868;2023-02-01T01:39:49;7.10;66.60
15394;DHT22;7795;47.986;11.868;2023-02-01T01:42:15;7.10;67.50
15394;DHT22;7795;47.986;11.868;2023-02-01T01:45:01;7.00;66.90
15394;DHT22;7795;47.986;11.868;2023-02-01T01:47:34;7.00;67.70
15394;DHT22;7795;47.986;11.868;2023-02-01T01:50:01;7.00;67.50
15394;DHT22;7795;47.986;11.868;2023-02-01T01:52:29;6.90;67.50
15394;DHT22;7795;47.986;11.868;2023-02-01T01:54:55;6.90;67.80
15394;DHT22;7795;47.986;11.868;2023-02-01T01:57:24;6.80;68.00
15394;DHT22;7795;47.986;11.868;2023-02-01T01:59:56;6.80;68.50
15394;DHT22;7795;47.986;11.868;2023-02-01T02:02:25;6.70;68.70
15394;DHT22;7795;47.986;11.868;2023-02-01T02:04:51;6.70;68.80
15394;DHT22;7795;47.986;11.868;2023-02-01T02:07:21;6.70;69.60
15394;DHT22;7795;47.986;11.868;2023-02-01T02:09:50;6.60;69.50
15394;DHT22;7795;47.986;11.868;2023-02-01T02:12:16;6.60;69.80
15394;DHT22;7795;47.986;11.868;2023-02-01T02:14:42;6.60;69.70
15394;DHT22;7795;47.986;11.868;2023-02-01T02:17:24;6.50;69.80
15394;DHT22;7795;47.986;11.868;2023-02-01T02:20:40;6.50;70.50
15394;DHT22;7795;47.986;11.868;2023-02-01T02:26:30;6.40;70.60
15394;DHT22;7795;47.986;11.868;2023-02-01T02:29:37;6.40;70.80
15394;DHT22;7795;47.986;11.868;2023-02-01T02:32:27;6.40;71.00
15394;DHT22;7795;47.986;11.868;2023-02-01T02:34:57;6.40;70.80
15394;DHT22;7795;47.986;11.868;2023-02-01T02:37:31;6.30;71.40
15394;DHT22;7795;47.986;11.868;2023-02-01T02:40:06;6.30;70.80
15394;DHT22;7795;47.986;11.868;2023-02-01T02:42:40;6.30;71.10
15394;DHT22;7795;47.986;11.868;2023-02-01T02:45:29;6.30;71.40
15394;DHT22;7795;47.986;11.868;2023-02-01T02:48:21;6.30;72.10
15394;DHT22;7795;47.986;11.868;2023-02-01T02:50:54;6.30;71.40
15394;DHT22;7795;47.986;11.868;2023-02-01T02:53:47;6.30;71.70
15394;DHT22;7795;47.986;11.868;2023-02-01T02:56:34;6.30;72.70
15394;DHT22;7795;47.986;11.868;2023-02-01T02:59:21;6.30;72.00
15394;DHT22;7795;47.986;11.868;2023-02-01T03:02:08;6.30;72.10
15394;DHT22;7795;47.986;11.868;2023-02-01T03:04:53;6.30;72.10
15394;DHT22;7795;47.986;11.868;2023-02-01T03:10:40;6.30;73.00
15394;DHT22;7795;47.986;11.868;2023-02-01T03:13:12;6.30;72.70
15394;DHT22;7795;47.986;11.868;2023-02-01T03:15:45;6.30;72.80
15394;DHT22;7795;47.986;11.868;2023-02-01T03:18:16;6.30;72.70
15394;DHT22;7795;47.986;11.868;2023-02-01T03:20:47;6.30;72.80
15394;DHT22;7795;47.986;11.868;2023-02-01T03:23:16;6.40;72.80
15394;DHT22;7795;47.986;11.868;2023-02-01T03:25:47;6.30;72.90
15394;DHT22;7795;47.986;11.868;2023-02-01T03:28:15;6.40;73.60
15394;DHT22;7795;47.986;11.868;2023-02-01T03:30:44;6.40;73.00
15394;DHT22;7795;47.986;11.868;2023-02-01T03:33:15;6.40;73.00
15394;DHT22;7795;47.986;11.868;2023-02-01T03:35:52;6.40;73.00
15394;DHT22;7795;47.986;11.868;2023-02-01T03:38:23;6.40;72.80
15394;DHT22;7795;47.986;11.868;2023-02-01T03:40:55;6.40;72.80
15394;DHT22;7795;47.986;11.868;2023-02-01T03:43:23;6.40;73.50
15394;DHT22;7795;47.986;11.868;2023-02-01T03:45:56;6.40;72.60
15394;DHT22;7795;47.986;11.868;2023-02-01T03:48:24;6.40;72.70
15394;DHT22;7795;47.986;11.868;2023-02-01T03:50:55;6.40;72.60
15394;DHT22;7795;47.986;11.868;2023-02-01T03:53:23;6.40;72.70
15394;DHT22;7795;47.986;11.868;2023-02-01T03:55:51;6.50;73.50
15394;DHT22;7795;47.986;11.868;2023-02-01T03:58:20;6.40;72.60
15394;DHT22;7795;47.986;11.868;2023-02-01T04:00:50;6.50;73.00
15394;DHT22;7795;47.986;11.868;2023-02-01T04:03:17;6.50;73.10
15394;DHT22;7795;47.986;11.868;2023-02-01T04:05:42;6.50;72.90
15394;DHT22;7795;47.986;11.868;2023-02-01T04:08:08;6.50;73.50
15394;DHT22;7795;47.986;11.868;2023-02-01T04:10:34;6.40;72.70
15394;DHT22;7795;47.986;11.868;2023-02-01T04:13:01;6.50;72.90
15394;DHT22;7795;47.986;11.868;2023-02-01T04:15:26;6.50;72.90
15394;DHT22;7795;47.986;11.868;2023-02-01T04:17:52;6.50;72.80
15394;DHT22;7795;47.986;11.868;2023-02-01T04:20:18;6.50;72.80
15394;DHT22;7795;47.986;11.868;2023-02-01T04:22:44;6.50;72.80
15394;DHT22;7795;47.986;11.868;2023-02-01T04:25:10;6.50;72.80
15394;DHT22;7795;47.986;11.868;2023-02-01T04:27:36;6.50;72.80
15394;DHT22;7795;47.986;11.868;2023-02-01T04:30:04;6.50;73.00
15394;DHT22;7795;47.986;11.868;2023-02-01T04:32:30;6.50;72.80
15394;DHT22;7795;47.986;11.868;2023-02-01T04:34:55;6.50;72.80
15394;DHT22;7795;47.986;11.868;2023-02-01T04:37:21;6.50;72.70
15394;DHT22;7795;47.986;11.868;2023-02-01T04:39:47;6.50;72.70
15394;DHT22;7795;47.986;11.868;2023-02-01T04:42:13;6.50;72.70
15394;DHT22;7795;47.986;11.868;2023-02-01T04:44:38;6.50;72.70
15394;DHT22;7795;47.986;11.868;2023-02-01T04:47:08;6.50;72.60
15394;DHT22;7795;47.986;11.868;2023-02-01T04:49:35;6.50;72.70
15394;DHT22;7795;47.986;11.868;2023-02-01T04:52:00;6.60;72.60
15394;DHT22;7795;47.986;11.868;2023-02-01T04:54:26;6.60;72.50
15394;DHT22;7795;47.986;11.868;2023-02-01T04:56:52;6.60;72.50
15394;DHT22;7795;47.986;11.868;2023-02-01T04:59:18;6.60;73.30
15394;DHT22;7795;47.986;11.868;2023-02-01T05:01:43;6.60;72.40
15394;DHT22;7795;47.986;11.868;2023-02-01T05:04:11;6.60;72.40
15394;DHT22;7795;47.986;11.868;2023-02-01T05:06:37;6.60;72.40
15394;DHT22;7795;47.986;11.868;2023-02-01T05:09:02;6.60;72.50
15394;DHT22;7795;47.986;11.868;2023-02-01T05:11:28;6.60;72.30
15394;DHT22;7795;47.986;11.868;2023-02-01T05:14:12;6.60;72.20
15394;DHT22;7795;47.986;11.868;2023-02-01T05:16:38;6.60;72.20
15394;DHT22;7795;47.986;11.868;2023-02-01T05:19:04;6.60;72.30
15394;DHT22;7795;47.986;11.868;2023-02-01T05:21:31;6.60;72.10
15394;DHT22;7795;47.986;11.868;2023-02-01T05:23:57;6.60;72.10
15394;DHT22;7795;47.986;11.868;2023-02-01T05:26:41;6.60;72.00
15394;DHT22;7795;47.986;11.868;2023-02-01T05:29:08;6.60;72.00
15394;DHT22;7795;47.986;11.868;2023-02-01T05:31:34;6.70;72.10
15394;DHT22;7795;47.986;11.868;2023-02-01T05:34:00;6.70;72.00
15394;DHT22;7795;47.986;11.868;2023-02-01T05:36:26;6.70;72.00
15394;DHT22;7795;47.986;11.868;2023-02-01T05:38:53;6.70;72.00
15394;DHT22;7795;47.986;11.868;2023-02-01T05:41:19;6.70;71.90
15394;DHT22;7795;47.986;11.868;2023-02-01T05:43:44;6.70;71.80
15394;DHT22;7795;47.986;11.868;2023-02-01T05:46:10;6.70;71.80
15394;DHT22;7795;47.986;11.868;2023-02-01T05:48:38;6.70;71.80
15394;DHT22;7795;47.986;11.868;2023-02-01T05:51:03;6.70;71.80
15394;DHT22;7795;47.986;11.868;2023-02-01T05:53:29;6.70;71.80
15394;DHT22;7795;47.986;11.868;2023-02-01T05:55:56;6.70;71.80
15394;DHT22;7795;47.986;11.868;2023-02-01T05:58:22;6.70;71.80
15394;DHT22;7795;47.986;11.868;2023-02-01T06:00:48;6.70;71.70
15394;DHT22;7795;47.986;11.868;2023-02-01T06:03:14;6.70;71.70
15394;DHT22;7795;47.986;11.868;2023-02-01T06:05:39;6.70;71.70
15394;DHT22;7795;47.986;11.868;2023-02-01T06:08:05;6.70;71.80
15394;DHT22;7795;47.986;11.868;2023-02-01T06:10:32;6.70;71.70
15394;DHT22;7795;47.986;11.868;2023-02-01T06:12:59;6.70;71.70
15394;DHT22;7795;47.986;11.868;2023-02-01T06:15:25;6.70;71.70
15394;DHT22;7795;47.986;11.868;2023-02-01T06:17:51;6.80;71.80
15394;DHT22;7795;47.986;11.868;2023-02-01T06:20:17;6.70;71.70
15394;DHT22;7795;47.986;11.868;2023-02-01T06:22:44;6.70;71.70
15394;DHT22;7795;47.986;11.868;2023-02-01T06:25:10;6.70;71.70
15394;DHT22;7795;47.986;11.868;2023-02-01T06:27:36;6.80;71.80
15394;DHT22;7795;47.986;11.868;2023-02-01T06:30:05;6.80;71.70
15394;DHT22;7795;47.986;11.868;2023-02-01T06:32:31;6.80;71.70
15394;DHT22;7795;47.986;11.868;2023-02-01T06:34:56;6.80;71.80
15394;DHT22;7795;47.986;11.868;2023-02-01T06:37:22;6.80;71.70
15394;DHT22;7795;47.986;11.868;2023-02-01T06:39:50;6.80;71.60
15394;DHT22;7795;47.986;11.868;2023-02-01T06:42:16;6.80;71.60
15394;DHT22;7795;47.986;11.868;2023-02-01T06:44:42;6.80;71.50
15394;DHT22;7795;47.986;11.868;2023-02-01T06:47:09;6.80;71.50
15394;DHT22;7795;47.986;11.868;2023-02-01T06:49:35;6.80;71.60
15394;DHT22;7795;47.986;11.868;2023-02-01T06:52:00;6.80;71.50
15394;DHT22;7795;47.986;11.868;2023-02-01T06:54:26;6.80;71.60
15394;DHT22;7795;47.986;11.868;2023-02-01T06:56:52;6.80;71.50
15394;DHT22;7795;47.986;11.868;2023-02-01T06:59:18;6.90;71.40
15394;DHT22;7795;47.986;11.868;2023-02-01T07:01:43;6.90;71.40
15394;DHT22;7795;47.986;11.868;2023-02-01T07:04:12;6.90;71.40
15394;DHT22;7795;47.986;11.868;2023-02-01T07:06:38;6.90;71.40
15394;DHT22;7795;47.986;11.868;2023-02-01T07:09:03;6.90;71.30
15394;DHT22;7795;47.986;11.868;2023-02-01T07:11:29;6.90;71.20
15394;DHT22;7795;47.986;11.868;2023-02-01T07:13:56;6.90;71.20
15394;DHT22;7795;47.986;11.868;2023-02-01T07:16:22;6.90;71.20
15394;DHT22;7795;47.986;11.868;2023-02-01T07:18:49;6.90;71.20
15394;DHT22;7795;47.986;11.868;2023-02-01T07:21:17;6.90;71.20
15394;DHT22;7795;47.986;11.868;2023-02-01T07:23:43;6.90;71.20
15394;DHT22;7795;47.986;11.868;2023-02-01T07:26:11;6.90;71.30
15394;DHT22;7795;47.986;11.868;2023-02-01T07:28:41;6.90;71.20
15394;DHT22;7795;47.986;11.868;2023-02-01T07:31:08;6.90;71.20
15394;DHT22;7795;47.986;11.868;2023-02-01T07:33:34;6.90;71.10
15394;DHT22;7795;47.986;11.868;2023-02-01T07:36:01;6.90;71.10
15394;DHT22;7795;47.986;11.868;2023-02-01T07:38:28;6.90;71.80
15394;DHT22;7795;47.986;11.868;2023-02-01T07:40:57;6.90;71.10
15394;DHT22;7795;47.986;11.868;2023-02-01T07:43:24;7.00;71.10
15394;DHT22;7795;47.986;11.868;2023-02-01T07:45:50;7.00;71.10
15394;DHT22;7795;47.986;11.868;2023-02-01T07:48:17;6.90;71.00
15394;DHT22;7795;47.986;11.868;2023-02-01T07:50:43;6.90;71.00
15394;DHT22;7795;47.986;11.868;2023-02-01T07:53:09;7.00;71.10
15394;DHT22;7795;47.986;11.868;2023-02-01T07:55:39;7.00;71.10
15394;DHT22;7795;47.986;11.868;2023-02-01T07:58:05;7.00;71.00
15394;DHT22;7795;47.986;11.868;2023-02-01T08:00:30;7.00;71.00
15394;DHT22;7795;47.986;11.868;2023-02-01T08:03:15;7.00;70.90
15394;DHT22;7795;47.986;11.868;2023-02-01T08:05:41;7.00;70.80
15394;DHT22;7795;47.986;11.868;2023-02-01T08:08:06;7.00;71.60
15394;DHT22;7795;47.986;11.868;2023-02-01T08:10:32;7.00;70.80
15394;DHT22;7795;47.986;11.868;2023-02-01T08:13:00;7.10;71.50
15394;DHT22;7795;47.986;11.868;2023-02-01T08:15:26;7.10;70.70
15394;DHT22;7795;47.986;11.868;2023-02-01T08:17:53;7.10;70.50
15394;DHT22;7795;47.986;11.868;2023-02-01T08:20:20;7.10;70.40
15394;DHT22;7795;47.986;11.868;2023-02-01T08:22:49;7.10;70.40
15394;DHT22;7795;47.986;11.868;2023-02-01T08:25:15;7.10;70.30
15394;DHT22;7795;47.986;11.868;2023-02-01T08:27:41;7.10;70.30
15394;DHT22;7795;47.986;11.868;2023-02-01T08:30:10;7.10;70.20
15394;DHT22;7795;47.986;11.868;2023-02-01T08:32:36;7.20;70.20
15394;DHT22;7795;47.986;11.868;2023-02-01T08:35:01;7.20;70.10
15394;DHT22;7795;47.986;11.868;2023-02-01T08:37:28;7.20;70.10
15394;DHT22;7795;47.986;11.868;2023-02-01T08:39:53;7.20;70.00
15394;DHT22;7795;47.986;11.868;2023-02-01T08:42:19;7.20;70.00
15394;DHT22;7795;47.986;11.868;2023-02-01T08:45:04;7.20;70.00
15394;DHT22;7795;47.986;11.868;2023-02-01T08:47:31;7.20;69.80
15394;DHT22;7795;47.986;11.868;2023-02-01T08:49:57;7.20;69.70
15394;DHT22;7795;47.986;11.868;2023-02-01T08:52:23;7.20;69.70
15394;DHT22;7795;47.986;11.868;2023-02-01T08:54:49;7.30;69.80
15394;DHT22;7795;47.986;11.868;2023-02-01T08:57:15;7.30;69.70
15394;DHT22;7795;47.986;11.868;2023-02-01T08:59:41;7.30;69.60
15394;DHT22;7795;47.986;11.868;2023-02-01T09:02:08;7.30;69.50
15394;DHT22;7795;47.986;11.868;2023-02-01T09:04:36;7.30;69.40
15394;DHT22;7795;47.986;11.868;2023-02-01T09:07:02;7.30;69.40
15394;DHT22;7795;47.986;11.868;2023-02-01T09:09:28;7.30;69.40
15394;DHT22;7795;47.986;11.868;2023-02-01T09:11:54;7.30;69.40
15394;DHT22;7795;47.986;11.868;2023-02-01T09:14:19;7.40;69.40
15394;DHT22;7795;47.986;11.868;2023-02-01T09:16:45;7.40;69.40
15394;DHT22;7795;47.986;11.868;2023-02-01T09:19:11;7.40;69.40
15394;DHT22;7795;47.986;11.868;2023-02-01T09:21:38;7.40;69.40
15394;DHT22;7795;47.986;11.868;2023-02-01T09:24:04;7.40;69.40
15394;DHT22;7795;47.986;11.868;2023-02-01T09:26:30;7.50;69.20
15394;DHT22;7795;47.986;11.868;2023-02-01T09:28:56;7.50;69.30
15394;DHT22;7795;47.986;11.868;2023-02-01T09:31:22;7.50;69.10
15394;DHT22;7795;47.986;11.868;2023-02-01T09:33:47;7.50;69.20
15394;DHT22;7795;47.986;11.868;2023-02-01T09:36:13;7.50;69.30
15394;DHT22;7795;47.986;11.868;2023-02-01T09:38:40;7.60;69.30
15394;DHT22;7795;47.986;11.868;2023-02-01T09:41:10;7.60;69.20
15394;DHT22;7795;47.986;11.868;2023-02-01T09:43:51;7.60;69.00
15394;DHT22;7795;47.986;11.868;2023-02-01T09:46:24;7.60;69.00
15394;DHT22;7795;47.986;11.868;2023-02-01T09:48:53;7.60;69.10
15394;DHT22;7795;47.986;11.868;2023-02-01T09:51:23;7.70;69.20
15394;DHT22;7795;47.986;11.868;2023-02-01T09:53:59;7.70;69.10
15394;DHT22;7795;47.986;11.868;2023-02-01T09:56:29;7.70;69.10
15394;DHT22;7795;47.986;11.868;2023-02-01T09:59:04;7.80;69.20
15394;DHT22;7795;47.986;11.868;2023-02-01T10:01:35;7.80;69.10
15394;DHT22;7795;47.986;11.868;2023-02-01T10:04:03;7.90;69.10
15394;DHT22;7795;47.986;11.868;2023-02-01T10:06:44;7.90;69.00
15394;DHT22;7795;47.986;11.868;2023-02-01T10:09:33;8.00;68.70
15394;DHT22;7795;47.986;11.868;2023-02-01T10:15:15;8.10;68.60
15394;DHT22;7795;47.986;11.868;2023-02-01T10:17:53;8.10;68.70
15394;DHT22;7795;47.986;11.868;2023-02-01T10:20:25;8.10;68.50
15394;DHT22;7795;47.986;11.868;2023-02-01T10:23:00;8.20;68.40
15394;DHT22;7795;47.986;11.868;2023-02-01T10:25:36;8.20;68.50
15394;DHT22;7795;47.986;11.868;2023-02-01T10:28:04;8.20;68.70
15394;DHT22;7795;47.986;11.868;2023-02-01T10:30:33;8.20;68.60
15394;DHT22;7795;47.986;11.868;2023-02-01T10:33:15;8.30;68.40
15394;DHT22;7795;47.986;11.868;2023-02-01T10:35:44;8.30;68.30
15394;DHT22;7795;47.986;11.868;2023-02-01T10:38:18;8.30;68.30
15394;DHT22;7795;47.986;11.868;2023-02-01T10:40:48;8.30;68.30
15394;DHT22;7795;47.986;11.868;2023-02-01T10:43:14;8.30;68.20
15394;DHT22;7795;47.986;11.868;2023-02-01T10:45:40;8.30;68.30
15394;DHT22;7795;47.986;11.868;2023-02-01T10:48:08;8.30;68.20
15394;DHT22;7795;47.986;11.868;2023-02-01T10:50:37;8.30;68.10
15394;DHT22;7795;47.986;11.868;2023-02-01T10:53:11;8.30;68.30
15394;DHT22;7795;47.986;11.868;2023-02-01T10:55:41;8.30;68.40
15394;DHT22;7795;47.986;11.868;2023-02-01T10:58:17;8.30;68.50
15394;DHT22;7795;47.986;11.868;2023-02-01T11:00:46;8.40;68.40
15394;DHT22;7795;47.986;11.868;2023-02-01T11:03:34;8.30;68.30
15394;DHT22;7795;47.986;11.868;2023-02-01T11:06:08;8.30;68.30
15394;DHT22;7795;47.986;11.868;2023-02-01T11:08:42;8.30;68.40
15394;DHT22;7795;47.986;11.868;2023-02-01T11:11:09;8.40;68.40
15394;DHT22;7795;47.986;11.868;2023-02-01T11:13:40;8.40;68.30
15394;DHT22;7795;47.986;11.868;2023-02-01T11:16:09;8.30;68.30
15394;DHT22;7795;47.986;11.868;2023-02-01T11:18:37;8.30;68.40
15394;DHT22;7795;47.986;11.868;2023-02-01T11:21:04;8.40;68.50
15394;DHT22;7795;47.986;11.868;2023-02-01T11:23:32;8.30;68.40
15394;DHT22;7795;47.986;11.868;2023-02-01T11:26:00;8.40;68.40
15394;DHT22;7795;47.986;11.868;2023-02-01T11:28:30;8.40;68.30
15394;DHT22;7795;47.986;11.868;2023-02-01T11:31:00;8.40;68.40
15394;DHT22;7795;47.986;11.868;2023-02-01T11:33:30;8.40;68.30
15394;DHT22;7795;47.986;11.868;2023-02-01T11:35:57;8.40;68.90
15394;DHT22;7795;47.986;11.868;2023-02-01T11:38:28;8.40;68.00
15394;DHT22;7795;47.986;11.868;2023-02-01T11:40:54;8.40;68.00
15394;DHT22;7795;47.986;11.868;2023-02-01T11:43:24;8.40;68.00
15394;DHT22;7795;47.986;11.868;2023-02-01T11:45:55;8.40;68.00
15394;DHT22;7795;47.986;11.868;2023-02-01T11:48:24;8.40;67.80
15394;DHT22;7795;47.986;11.868;2023-02-01T11:51:00;8.40;67.90
15394;DHT22;7795;47.986;11.868;2023-02-01T11:53:39;8.40;67.90
15394;DHT22;7795;47.986;11.868;2023-02-01T11:56:14;8.40;67.80
15394;DHT22;7795;47.986;11.868;2023-02-01T11:59:13;8.30;67.50
15394;DHT22;7795;47.986;11.868;2023-02-01T12:01:53;8.30;67.60
15394;DHT22;7795;47.986;11.868;2023-02-01T12:04:56;8.30;67.70
15394;DHT22;7795;47.986;11.868;2023-02-01T12:07:31;8.30;67.40
15394;DHT22;7795;47.986;11.868;2023-02-01T12:10:12;8.30;67.70
15394;DHT22;7795;47.986;11.868;2023-02-01T12:12:48;8.30;67.70
15394;DHT22;7795;47.986;11.868;2023-02-01T12:15:28;8.30;67.60
15394;DHT22;7795;47.986;11.868;2023-02-01T12:18:06;8.30;67.50
15394;DHT22;7795;47.986;11.868;2023-02-01T12:20:51;8.30;67.40
15394;DHT22;7795;47.986;11.868;2023-02-01T12:23:31;8.30;67.40
15394;DHT22;7795;47.986;11.868;2023-02-01T12:26:10;8.30;67.30
15394;DHT22;7795;47.986;11.868;2023-02-01T12:29:01;8.30;67.30
15394;DHT22;7795;47.986;11.868;2023-02-01T12:31:38;8.30;67.40
15394;DHT22;7795;47.986;11.868;2023-02-01T12:34:19;8.30;67.40
15394;DHT22;7795;47.986;11.868;2023-02-01T12:36:56;8.30;67.40
15394;DHT22;7795;47.986;11.868;2023-02-01T12:39:26;8.30;67.40
15394;DHT22;7795;47.986;11.868;2023-02-01T12:42:01;8.30;68.20
15394;DHT22;7795;47.986;11.868;2023-02-01T12:44:35;8.30;67.00
15394;DHT22;7795;47.986;11.868;2023-02-01T12:47:06;8.30;67.10
15394;DHT22;7795;47.986;11.868;2023-02-01T12:49:41;8.30;67.10
15394;DHT22;7795;47.986;11.868;2023-02-01T12:52:14;8.30;67.10
15394;DHT22;7795;47.986;11.868;2023-02-01T12:54:46;8.30;66.90
15394;DHT22;7795;47.986;11.868;2023-02-01T12:57:17;8.30;67.00
15394;DHT22;7795;47.986;11.868;2023-02-01T12:59:49;8.30;66.70
15394;DHT22;7795;47.986;11.868;2023-02-01T13:02:22;8.30;66.90
15394;DHT22;7795;47.986;11.868;2023-02-01T13:04:55;8.30;66.90
15394;DHT22;7795;47.986;11.868;2023-02-01T13:07:28;8.30;67.60
15394;DHT22;7795;47.986;11.868;2023-02-01T13:09:59;8.20;66.60
15394;DHT22;7795;47.986;11.868;2023-02-01T13:12:32;8.20;66.20
15394;DHT22;7795;47.986;11.868;2023-02-01T13:15:02;8.20;65.90
15394;DHT22;7795;47.986;11.868;2023-02-01T13:17:31;8.20;65.90
15394;DHT22;7795;47.986;11.868;2023-02-01T13:20:03;8.10;65.80
15394;DHT22;7795;47.986;11.868;2023-02-01T13:22:34;8.10;66.10
15394;DHT22;7795;47.986;11.868;2023-02-01T13:25:03;8.10;66.20
15394;DHT22;7795;47.986;11.868;2023-02-01T13:27:30;8.10;66.30
15394;DHT22;7795;47.986;11.868;2023-02-01T13:30:00;8.10;66.30
15394;DHT22;7795;47.986;11.868;2023-02-01T13:35:47;8.10;66.40
15394;DHT22;7795;47.986;11.868;2023-02-01T13:38:42;8.10;66.30
15394;DHT22;7795;47.986;11.868;2023-02-01T13:41:20;8.10;66.40
15394;DHT22;7795;47.986;11.868;2023-02-01T13:43:52;8.10;66.70
15394;DHT22;7795;47.986;11.868;2023-02-01T13:46:19;8.20;66.70
15394;DHT22;7795;47.986;11.868;2023-02-01T13:48:49;8.20;66.80
15394;DHT22;7795;47.986;11.868;2023-02-01T13:51:25;8.20;66.90
15394;DHT22;7795;47.986;11.868;2023-02-01T13:53:57;8.20;66.90
15394;DHT22;7795;47.986;11.868;2023-02-01T13:56:24;8.20;66.90
15394;DHT22;7795;47.986;11.868;2023-02-01T13:58:50;8.20;66.90
15394;DHT22;7795;47.986;11.868;2023-02-01T14:01:43;8.20;67.70
15394;DHT22;7795;47.986;11.868;2023-02-01T14:07:18;8.30;66.70
15394;DHT22;7795;47.986;11.868;2023-02-01T14:09:45;8.30;66.70
15394;DHT22;7795;47.986;11.868;2023-02-01T14:12:43;8.30;66.70
15394;DHT22;7795;47.986;11.868;2023-02-01T14:15:24;8.40;66.70
15394;DHT22;7795;47.986;11.868;2023-02-01T14:17:51;8.30;66.70
15394;DHT22;7795;47.986;11.868;2023-02-01T14:20:44;8.30;66.70
15394;DHT22;7795;47.986;11.868;2023-02-01T14:23:17;8.30;66.50
15394;DHT22;7795;47.986;11.868;2023-02-01T14:25:48;8.30;66.70
15394;DHT22;7795;47.986;11.868;2023-02-01T14:28:25;8.30;66.80
15394;DHT22;7795;47.986;11.868;2023-02-01T14:30:53;8.30;66.90
15394;DHT22;7795;47.986;11.868;2023-02-01T14:33:21;8.30;66.70
15394;DHT22;7795;47.986;11.868;2023-02-01T14:36:01;8.30;66.60
15394;DHT22;7795;47.986;11.868;2023-02-01T14:38:27;8.30;66.40
15394;DHT22;7795;47.986;11.868;2023-02-01T14:41:22;8.30;66.60
15394;DHT22;7795;47.986;11.868;2023-02-01T14:43:51;8.30;66.40
15394;DHT22;7795;47.986;11.868;2023-02-01T14:46:17;8.30;66.70
15394;DHT22;7795;47.986;11.868;2023-02-01T14:48:45;8.30;66.40
15394;DHT22;7795;47.986;11.868;2023-02-01T14:51:15;8.30;66.20
15394;DHT22;7795;47.986;11.868;2023-02-01T14:53:42;8.20;66.10
15394;DHT22;7795;47.986;11.868;2023-02-01T14:56:14;8.20;66.10
15394;DHT22;7795;47.986;11.868;2023-02-01T14:58:44;8.20;66.10
15394;DHT22;7795;47.986;11.868;2023-02-01T15:01:18;8.10;66.00
15394;DHT22;7795;47.986;11.868;2023-02-01T15:03:50;8.10;66.00
15394;DHT22;7795;47.986;11.868;2023-02-01T15:06:25;8.10;66.20
15394;DHT22;7795;47.986;11.868;2023-02-01T15:08:54;8.10;66.00
15394;DHT22;7795;47.986;11.868;2023-02-01T15:11:22;8.10;66.10
15394;DHT22;7795;47.986;11.868;2023-02-01T15:13:49;8.00;66.10
15394;DHT22;7795;47.986;11.868;2023-02-01T15:16:16;8.00;66.30
15394;DHT22;7795;47.986;11.868;2023-02-01T15:18:43;8.00;66.30
15394;DHT22;7795;47.986;11.868;2023-02-01T15:21:16;8.00;66.30
15394;DHT22;7795;47.986;11.868;2023-02-01T15:23:42;8.00;66.30
15394;DHT22;7795;47.986;11.868;2023-02-01T15:26:08;8.00;66.30
15394;DHT22;7795;47.986;11.868;2023-02-01T15:28:35;7.90;66.30
15394;DHT22;7795;47.986;11.868;2023-02-01T15:31:03;7.90;66.40
15394;DHT22;7795;47.986;11.868;2023-02-01T15:33:29;7.90;66.50
15394;DHT22;7795;47.986;11.868;2023-02-01T15:36:08;7.90;66.80
15394;DHT22;7795;47.986;11.868;2023-02-01T15:38:37;7.80;66.90
15394;DHT22;7795;47.986;11.868;2023-02-01T15:41:09;7.80;67.00
15394;DHT22;7795;47.986;11.868;2023-02-01T15:43:40;7.80;67.20
15394;DHT22;7795;47.986;11.868;2023-02-01T15:46:09;7.70;67.20
15394;DHT22;7795;47.986;11.868;2023-02-01T15:48:38;7.70;67.30
15394;DHT22;7795;47.986;11.868;2023-02-01T15:51:06;7.70;67.50
15394;DHT22;7795;47.986;11.868;2023-02-01T15:53:36;7.60;67.50
15394;DHT22;7795;47.986;11.868;2023-02-01T15:56:04;7.60;67.60
15394;DHT22;7795;47.986;11.868;2023-02-01T15:58:30;7.60;67.80
15394;DHT22;7795;47.986;11.868;2023-02-01T16:01:01;7.60;67.80
15394;DHT22;7795;47.986;11.868;2023-02-01T16:03:35;7.60;68.00
15394;DHT22;7795;47.986;11.868;2023-02-01T16:06:03;7.50;68.10
15394;DHT22;7795;47.986;11.868;2023-02-01T16:08:30;7.60;68.20
15394;DHT22;7795;47.986;11.868;2023-02-01T16:11:01;7.60;68.30
15394;DHT22;7795;47.986;11.868;2023-02-01T16:13:39;7.60;68.40
15394;DHT22;7795;47.986;11.868;2023-02-01T16:16:08;7.60;68.40
15394;DHT22;7795;47.986;11.868;2023-02-01T16:18:39;7.60;68.70
15394;DHT22;7795;47.986;11.868;2023-02-01T16:21:05;7.50;68.70